92NK weather

Owasco Airport
Moravia, New York, United States

Public forecast

Using degrees Fahrenheit for public forecast. Weather courtesy of forecast.io.

Closest aviation weather report (METAR) to Owasco Airport

Closest report is Cortland County Chase Field, 14.8 nm (27.3 km) SE. Retrieved 2020/08/05 12:35 UTC (2 minutes ago):

KN03 051235Z AUTO 26008G16KT 10SM SCT023 18/14 A3005 RMK AO2

Closest aviation forecast (TAF) to Owasco Airport

Closest forecast is Ithaca Tompkins Regional Airport, 14.8 nm (27.4 km) S. Retrieved 2020/08/05 12:22 UTC (15 minutes ago):

TAF KITH 051120Z 0512/0612 24007KT P6SM FEW025 SCT090 FM051500 28008KT P6SM SCT035 FM052200 31006KT P6SM SCT050 FM060100 VRB03KT P6SM FEW050